Worth, IL (60482)

12:50 AM CST on January 17, 2017 (GMT -0600)
Chicago Ridge Emergency Operations Center | | Change Station

Elev 600 ft 41.70 °N, 87.78 °W | Updated 18 seconds ago

Overcast
Overcast
39.7 °F
Feels Like 40 °F
N
0.0
Wind Variable Wind from East
Gusts 5.0 mph

Today
High -- | Low -- °F
--% Chance of Precip.
Yesterday
High -- | Low -- °F
Precip. -- in
Pressure 29.78 in
Visibility 1.0 miles
Clouds Overcast 200 ft
Windchill 40 °F
Dew Point 39 °F
Humidity 98%
Rainfall 0.17 in
Snow Depth Not available.
7:14 AM 4:48 PM
Waning Gibbous, 75% visible
SPECI KMDW 170630Z 05005KT 1SM R31C/P6000FT BR OVC002 03/03 A2978 RMK AO2 DZE11 P0000 T00280028
Pressure 29.78 in
Visibility 1.0 miles
Clouds Overcast 200 ft
Windchill 40 °F
Dew Point 39 °F
Humidity 98%
Rainfall 0.17 in
Snow Depth Not available.
7:14 AM 4:48 PM
Waning Gibbous, 75% visible
SPECI KMDW 170630Z 05005KT 1SM R31C/P6000FT BR OVC002 03/03 A2978 RMK AO2 DZE11 P0000 T00280028

Get Your Daily Forecast Email!

Thanks for signing up!

Be on the lookout for a verification email in your inbox.

You'll start receiving the daily forecast at 8 AM.

×

10-Day Weather Forecast

Almanac

Astronomy

Jan. 17, 2017 Rise Set
Actual Time
Civil Twilight
Nautical Twilight
Astronomical Twilight
Moon
Length of Visible Light
Length of Day
Tomorrow will be .
, % of the Moon is Illuminated

Today's Extremes

State Highs State Lows

Community

WunderPhotos

Upload Photos

1,962,540 photos uploaded!

WunderBlog® & News

Nearby

Air Quality

  Air Quality AQ Index Pollutant
Not available.

Snow Depth

Station Depth Elevation

Earthquake Activity

City Distance Mag. Time & Date
Minimum magnitude displayed is 2.5.

Coastal Water Temperatures

Place Temperature

Stations

Nearby Weather Stations

Station Location Temp. Windchill Dew Point Humidity Wind Precip. Elev Updated Type
                   

Watches & Warnings

Dense Fog Advisory
Issued: 12:09 AM CST Jan. 17, 2017 – National Weather Service

... Dense fog advisory remains in effect until 10 am CST this
morning...

* visibility... quarter mile or less.

* Impacts... low visibilities will make travel hazardous across
the region.

Precautionary/preparedness actions...

A dense fog advisory means visibilities will frequently be
reduced to less than one quarter mile. If driving... slow down...
use your headlights... and leave plenty of distance ahead of you.



Bmd


Marine Fog Advisory
Issued: 10:38 PM CST Jan. 16, 2017 – National Weather Service

... Dense fog advisory now in effect until 10 am CST Tuesday...

* visibility... less than 1/2 mile.

Precautionary/preparedness actions...

A dense fog advisory means visibilities will frequently be
reduced to less than one mile. Inexperienced mariners...
especially those operating smaller vessels should avoid
navigating in these conditions.